Time;durP1;ratioP1;P1;durP2;ratioP2;P2;SDS_P1;SDS_P2;PMS_P1;PMS_P2;Temp;Humidity;BMP_temperature;BMP_pressure;BME280_temperature;BME280_humidity;BME280_pressure;Samples;Min_cycle;Max_cycle;Signal;HPM_P1;HPM_P2
2022/12/31 00:01:34;;;;;;;0.30;0.30;;;11.50;99.90;;;;;;5074386;28;20186;-71
2022/12/31 00:04:00;;;;;;;0.40;0.40;;;11.50;99.90;;;;;;5075956;28;20536;-71
2022/12/31 00:06:31;;;;;;;0.30;0.30;;;11.50;99.90;;;;;;5075497;28;20176;-70
2022/12/31 00:08:59;;;;;;;0.63;0.50;;;11.50;99.90;;;;;;5075720;28;20174;-70
2022/12/31 00:11:27;;;;;;;0.40;0.40;;;11.50;99.90;;;;;;5075406;28;20514;-71
2022/12/31 00:13:54;;;;;;;0.83;0.43;;;11.50;99.90;;;;;;5075326;28;20174;-70
2022/12/31 00:16:25;;;;;;;0.50;0.50;;;11.50;99.90;;;;;;5074031;28;20400;-71
2022/12/31 00:18:53;;;;;;;0.63;0.60;;;11.40;99.90;;;;;;5075479;28;20750;-70
2022/12/31 00:21:20;;;;;;;0.30;0.30;;;11.50;99.90;;;;;;5075272;28;20189;-69
2022/12/31 00:23:46;;;;;;;0.40;0.40;;;11.40;99.90;;;;;;5075096;28;20242;-70
2022/12/31 00:26:17;;;;;;;0.30;0.30;;;11.40;99.90;;;;;;5075092;28;20180;-70
2022/12/31 00:28:44;;;;;;;0.30;0.30;;;11.40;99.90;;;;;;5075109;28;20174;-70
2022/12/31 00:31:19;;;;;;;0.40;0.40;;;11.40;99.90;;;;;;5074961;28;20573;-70
2022/12/31 00:33:45;;;;;;;0.30;0.30;;;11.50;99.90;;;;;;5075252;28;20856;-69
2022/12/31 00:36:13;;;;;;;0.77;0.77;;;11.50;99.90;;;;;;5074801;28;20789;-70
2022/12/31 00:38:41;;;;;;;1.73;0.50;;;11.50;99.90;;;;;;5075072;28;20408;-70
2022/12/31 00:41:07;;;;;;;0.30;0.30;;;11.50;99.90;;;;;;5074919;28;20463;-69
2022/12/31 00:43:33;;;;;;;0.30;0.30;;;11.50;99.90;;;;;;5074814;28;20248;-70
2022/12/31 00:46:00;;;;;;;0.30;0.30;;;11.50;99.90;;;;;;5074759;28;20174;-70
2022/12/31 00:48:26;;;;;;;0.90;0.50;;;11.50;99.90;;;;;;5074790;28;20310;-70
2022/12/31 00:50:53;;;;;;;0.60;0.60;;;11.70;99.90;;;;;;5074781;28;20190;-70
2022/12/31 00:53:19;;;;;;;0.30;0.30;;;11.70;99.90;;;;;;5074533;28;20423;-70
2022/12/31 00:55:45;;;;;;;0.40;0.40;;;11.80;99.90;;;;;;5074598;28;20399;-69
2022/12/31 00:58:11;;;;;;;0.30;0.30;;;11.80;99.90;;;;;;5074707;28;20537;-70
2022/12/31 01:00:37;;;;;;;0.30;0.30;;;11.80;99.90;;;;;;5074306;28;20200;-70
2022/12/31 01:03:03;;;;;;;0.40;0.40;;;11.80;99.90;;;;;;5074524;28;20170;-70
2022/12/31 01:05:30;;;;;;;0.30;0.30;;;11.80;99.90;;;;;;5074248;28;20434;-71
2022/12/31 01:07:56;;;;;;;0.30;0.30;;;11.80;99.90;;;;;;5074464;28;20757;-71
2022/12/31 01:13:06;;;;;;;0.70;0.70;;;11.80;99.90;;;;;;5074134;28;20226;-70
2022/12/31 01:15:34;;;;;;;0.40;0.40;;;11.80;99.90;;;;;;5074233;28;20174;-71
2022/12/31 01:18:00;;;;;;;0.80;0.80;;;11.70;99.90;;;;;;5074261;28;20399;-71
2022/12/31 01:20:26;;;;;;;0.30;0.30;;;11.80;99.90;;;;;;5074120;28;20201;-70
2022/12/31 01:22:51;;;;;;;0.30;0.30;;;11.80;99.90;;;;;;5074016;28;20443;-71
2022/12/31 01:25:17;;;;;;;0.40;0.40;;;11.80;99.90;;;;;;5073931;28;20260;-70
2022/12/31 01:27:42;;;;;;;1.37;1.13;;;11.90;99.90;;;;;;5074152;28;20538;-69
2022/12/31 01:30:08;;;;;;;0.37;0.37;;;11.80;99.90;;;;;;5073990;28;20363;-71
2022/12/31 01:32:34;;;;;;;0.40;0.40;;;11.80;99.90;;;;;;5073895;28;20208;-71
2022/12/31 01:35:00;;;;;;;0.30;0.30;;;11.80;99.90;;;;;;5073768;28;20821;-70
2022/12/31 01:37:26;;;;;;;0.50;0.50;;;11.80;99.90;;;;;;5073735;28;20189;-69
2022/12/31 01:39:52;;;;;;;0.30;0.30;;;11.80;99.90;;;;;;5073718;28;20190;-70
2022/12/31 01:42:17;;;;;;;0.50;0.50;;;11.70;99.90;;;;;;5073644;28;20427;-71
2022/12/31 01:44:48;;;;;;;0.30;0.30;;;11.70;99.90;;;;;;5073841;28;20536;-69
2022/12/31 01:47:18;;;;;;;0.50;0.50;;;11.70;99.90;;;;;;5072640;28;20653;-71
2022/12/31 01:49:48;;;;;;;0.40;0.40;;;11.70;99.90;;;;;;5073840;28;20741;-70
2022/12/31 01:52:14;;;;;;;0.40;0.40;;;11.80;99.90;;;;;;5073622;28;20423;-70
2022/12/31 01:54:54;;;;;;;0.40;0.40;;;11.80;99.90;;;;;;5073488;28;20499;-71
2022/12/31 01:57:22;;;;;;;0.30;0.30;;;11.80;99.90;;;;;;5073538;28;20165;-70
2022/12/31 01:59:48;;;;;;;0.40;0.40;;;11.80;99.90;;;;;;5073693;28;20798;-69
2022/12/31 02:02:15;;;;;;;0.40;0.40;;;11.80;99.90;;;;;;5073412;28;20415;-71
2022/12/31 02:04:41;;;;;;;0.40;0.40;;;11.90;99.90;;;;;;5073757;28;20395;-71
2022/12/31 02:07:08;;;;;;;0.30;0.30;;;11.80;99.90;;;;;;5073484;28;20411;-70
2022/12/31 02:09:38;;;;;;;0.30;0.30;;;11.90;99.90;;;;;;5073530;28;20410;-71
2022/12/31 02:12:04;;;;;;;0.45;0.45;;;11.80;99.90;;;;;;5073312;28;20462;-70
2022/12/31 02:14:51;;;;;;;0.40;0.40;;;11.90;99.90;;;;;;5073160;28;20177;-70
2022/12/31 02:17:42;;;;;;;0.30;0.30;;;12.00;99.90;;;;;;5073425;28;20429;-71
2022/12/31 02:20:35;;;;;;;0.60;0.60;;;12.10;99.90;;;;;;5072706;28;20678;-69
2022/12/31 02:23:47;;;;;;;0.37;0.37;;;12.10;99.90;;;;;;5073378;28;20380;-69
2022/12/31 02:26:35;;;;;;;0.30;0.30;;;12.10;99.90;;;;;;5077063;28;20564;-71
2022/12/31 02:29:38;;;;;;;0.40;0.40;;;12.20;99.90;;;;;;5077542;28;20865;-71
2022/12/31 02:32:14;;;;;;;0.30;0.30;;;12.20;99.90;;;;;;5077386;28;20780;-70
2022/12/31 02:34:46;;;;;;;0.50;0.50;;;12.20;99.90;;;;;;5077208;28;20401;-70
2022/12/31 02:37:14;;;;;;;0.30;0.30;;;12.20;99.90;;;;;;5077246;28;20433;-70
2022/12/31 02:39:41;;;;;;;0.88;0.88;;;12.20;99.90;;;;;;5077224;28;20966;-71
2022/12/31 02:42:09;;;;;;;0.30;0.30;;;12.20;99.90;;;;;;5077079;28;20700;-71
2022/12/31 02:44:36;;;;;;;0.50;0.50;;;12.20;99.90;;;;;;5076969;28;20415;-70
2022/12/31 02:47:08;;;;;;;0.40;0.40;;;12.30;99.90;;;;;;5075860;28;20442;-70
2022/12/31 02:49:57;;;;;;;0.50;0.50;;;12.30;99.90;;;;;;5077145;28;20410;-71
2022/12/31 02:52:31;;;;;;;0.63;0.63;;;12.30;99.90;;;;;;5076877;28;20867;-70
2022/12/31 02:55:01;;;;;;;0.40;0.40;;;12.30;99.90;;;;;;5076963;28;20404;-70
2022/12/31 02:57:33;;;;;;;0.30;0.30;;;12.30;99.90;;;;;;5076915;28;20759;-71
2022/12/31 03:02:53;;;;;;;0.30;0.30;;;12.30;99.90;;;;;;5076992;28;20453;-69
2022/12/31 03:05:23;;;;;;;0.40;0.40;;;12.20;99.90;;;;;;5076531;28;20435;-71
2022/12/31 03:07:49;;;;;;;0.40;0.40;;;12.20;99.90;;;;;;5075406;28;20485;-70
2022/12/31 03:10:15;;;;;;;0.40;0.40;;;12.10;99.90;;;;;;5076466;28;20630;-71
2022/12/31 03:12:45;;;;;;;0.40;0.40;;;12.00;99.90;;;;;;5076537;28;20768;-70
2022/12/31 03:15:32;;;;;;;0.40;0.40;;;12.00;99.90;;;;;;5076445;28;20422;-71
2022/12/31 03:18:01;;;;;;;0.30;0.30;;;12.00;99.90;;;;;;5076708;28;20631;-70
2022/12/31 03:23:22;;;;;;;0.30;0.30;;;12.00;99.90;;;;;;5076338;28;20426;-70
2022/12/31 03:25:48;;;;;;;0.50;0.50;;;12.00;99.90;;;;;;5076280;28;20471;-70
2022/12/31 03:28:17;;;;;;;0.30;0.30;;;12.00;99.90;;;;;;5075007;28;20201;-70
2022/12/31 03:30:48;;;;;;;0.30;0.30;;;12.00;99.90;;;;;;5076219;28;20186;-70
2022/12/31 03:33:14;;;;;;;0.40;0.40;;;12.00;99.90;;;;;;5076283;28;20441;-70
2022/12/31 03:35:42;;;;;;;0.50;0.50;;;12.10;99.90;;;;;;5075799;28;20407;-69
2022/12/31 03:38:08;;;;;;;0.30;0.30;;;12.10;99.90;;;;;;5076332;28;20403;-71
2022/12/31 03:40:38;;;;;;;0.30;0.30;;;12.10;99.90;;;;;;5075870;28;20804;-71
2022/12/31 03:43:04;;;;;;;0.30;0.30;;;12.10;99.90;;;;;;5076187;28;20475;-70
2022/12/31 03:45:30;;;;;;;0.40;0.40;;;12.20;99.90;;;;;;5076042;28;20479;-71
2022/12/31 03:47:55;;;;;;;0.30;0.30;;;12.20;99.90;;;;;;5076038;28;20193;-71
2022/12/31 03:50:21;;;;;;;0.40;0.40;;;12.20;99.90;;;;;;5075988;28;20653;-70
2022/12/31 03:52:47;;;;;;;0.60;0.60;;;12.20;99.90;;;;;;5075825;28;20666;-70
2022/12/31 03:55:12;;;;;;;0.60;0.60;;;12.10;99.90;;;;;;5075940;28;20519;-70
2022/12/31 03:57:38;;;;;;;0.30;0.30;;;12.20;99.90;;;;;;5075832;28;20176;-71
2022/12/31 04:00:06;;;;;;;0.40;0.40;;;12.20;99.90;;;;;;5075758;28;20606;-69
2022/12/31 04:02:32;;;;;;;0.90;0.57;;;12.20;99.90;;;;;;5075668;28;20876;-70
2022/12/31 04:04:57;;;;;;;1.13;1.07;;;12.20;99.90;;;;;;5075509;28;20520;-70
2022/12/31 04:07:23;;;;;;;0.30;0.30;;;12.20;99.90;;;;;;5075558;28;20170;-71
2022/12/31 04:09:49;;;;;;;0.60;0.60;;;12.20;99.90;;;;;;5075943;28;20535;-69
2022/12/31 04:12:14;;;;;;;0.30;0.30;;;12.20;99.90;;;;;;5075446;28;20198;-71
2022/12/31 04:14:40;;;;;;;0.57;0.50;;;12.10;99.90;;;;;;5075420;28;20169;-71
2022/12/31 04:17:06;;;;;;;0.30;0.30;;;12.10;99.90;;;;;;5075598;28;20166;-70
2022/12/31 04:19:31;;;;;;;0.30;0.30;;;12.00;99.90;;;;;;5074140;28;20241;-71
2022/12/31 04:21:57;;;;;;;0.50;0.50;;;12.00;99.90;;;;;;5075384;28;20456;-70
2022/12/31 04:24:23;;;;;;;0.40;0.40;;;12.10;99.90;;;;;;5075073;28;20645;-71
2022/12/31 04:26:49;;;;;;;0.30;0.30;;;12.00;99.90;;;;;;5075414;28;20177;-71
2022/12/31 04:29:14;;;;;;;0.30;0.30;;;12.10;99.90;;;;;;5075238;28;20461;-70
2022/12/31 04:31:40;;;;;;;0.30;0.30;;;12.00;99.90;;;;;;5075167;28;20197;-69
2022/12/31 04:34:06;;;;;;;0.50;0.50;;;12.00;99.90;;;;;;5074881;28;20173;-70
2022/12/31 04:36:31;;;;;;;0.40;0.40;;;12.10;99.90;;;;;;5074973;28;20196;-70
2022/12/31 04:38:57;;;;;;;0.40;0.40;;;12.10;99.90;;;;;;5075072;28;20166;-69
2022/12/31 04:41:25;;;;;;;0.30;0.30;;;12.10;99.90;;;;;;5074920;28;20189;-70
2022/12/31 04:43:54;;;;;;;0.30;0.30;;;12.10;99.90;;;;;;5075043;28;20164;-70
2022/12/31 04:46:31;;;;;;;0.93;0.70;;;12.10;99.90;;;;;;5074448;28;20534;-70
2022/12/31 04:48:58;;;;;;;0.30;0.30;;;12.10;99.90;;;;;;5074881;28;20765;-69
2022/12/31 04:51:25;;;;;;;0.30;0.30;;;12.10;99.90;;;;;;5074616;28;20432;-71
2022/12/31 04:53:51;;;;;;;3.20;1.73;;;12.10;99.90;;;;;;5074693;28;20507;-70
2022/12/31 04:56:17;;;;;;;0.30;0.30;;;12.10;99.90;;;;;;5074571;28;20430;-71
2022/12/31 04:58:43;;;;;;;0.60;0.60;;;12.20;99.90;;;;;;5074607;28;20410;-69
2022/12/31 05:01:10;;;;;;;0.87;0.70;;;12.20;99.90;;;;;;5074495;28;20468;-70
2022/12/31 05:03:36;;;;;;;0.30;0.30;;;12.20;99.90;;;;;;5074626;28;20402;-70
2022/12/31 05:06:14;;;;;;;0.40;0.40;;;12.20;99.90;;;;;;5074249;28;20869;-69
2022/12/31 05:08:40;;;;;;;0.50;0.50;;;12.20;99.90;;;;;;5074733;28;20824;-69
2022/12/31 05:11:06;;;;;;;0.40;0.40;;;12.20;99.90;;;;;;5074309;28;20435;-71
2022/12/31 05:13:32;;;;;;;0.30;0.30;;;12.10;99.90;;;;;;5074239;28;20503;-71
2022/12/31 05:15:58;;;;;;;0.40;0.40;;;12.00;99.90;;;;;;5073991;28;20877;-70
2022/12/31 05:18:23;;;;;;;0.30;0.30;;;12.00;99.90;;;;;;5074136;28;20646;-70
2022/12/31 05:20:49;;;;;;;0.30;0.30;;;12.00;99.90;;;;;;5073910;28;20205;-70
2022/12/31 05:23:16;;;;;;;0.30;0.30;;;12.00;99.90;;;;;;5074203;28;20579;-70
2022/12/31 05:25:43;;;;;;;0.40;0.40;;;12.10;99.90;;;;;;5073935;28;20170;-71
2022/12/31 05:28:09;;;;;;;0.50;0.40;;;12.10;99.90;;;;;;5074086;28;20403;-70
2022/12/31 05:30:35;;;;;;;0.40;0.40;;;12.10;99.90;;;;;;5074032;28;20786;-69
2022/12/31 05:33:00;;;;;;;0.30;0.30;;;12.20;99.90;;;;;;5073916;28;20169;-70
2022/12/31 05:35:26;;;;;;;0.33;0.33;;;12.20;99.90;;;;;;5074006;28;20615;-70
2022/12/31 05:37:52;;;;;;;0.40;0.40;;;12.10;99.90;;;;;;5073756;28;20185;-70
2022/12/31 05:40:17;;;;;;;0.50;0.50;;;12.10;99.90;;;;;;5073807;28;20374;-70
2022/12/31 05:42:43;;;;;;;0.60;0.60;;;12.10;99.90;;;;;;5073748;28;20173;-71
2022/12/31 05:45:12;;;;;;;0.50;0.50;;;12.10;99.90;;;;;;5073648;28;20172;-71
2022/12/31 05:47:41;;;;;;;0.30;0.30;;;12.10;99.90;;;;;;5073650;28;20400;-70
2022/12/31 05:50:14;;;;;;;0.40;0.40;;;12.10;99.90;;;;;;5073794;28;20404;-71
2022/12/31 05:52:40;;;;;;;0.50;0.50;;;12.00;99.90;;;;;;5073958;28;20390;-70
2022/12/31 05:55:06;;;;;;;0.60;0.60;;;12.00;99.90;;;;;;5073523;28;20415;-70
2022/12/31 05:57:31;;;;;;;0.40;0.40;;;12.00;99.90;;;;;;5074065;28;20565;-71
2022/12/31 05:59:57;;;;;;;0.30;0.30;;;12.00;99.90;;;;;;5072589;28;20197;-70
2022/12/31 06:02:23;;;;;;;3.40;0.73;;;11.90;99.90;;;;;;5073579;28;20555;-69
2022/12/31 06:04:49;;;;;;;0.30;0.30;;;11.80;99.90;;;;;;5073332;28;20514;-70
2022/12/31 06:07:14;;;;;;;2.30;0.50;;;11.90;99.90;;;;;;5073602;28;20473;-71
2022/12/31 06:09:40;;;;;;;0.30;0.30;;;11.90;99.90;;;;;;5073590;28;20173;-69
2022/12/31 06:12:06;;;;;;;0.30;0.30;;;11.90;99.90;;;;;;5073335;28;20203;-69
2022/12/31 06:14:32;;;;;;;0.30;0.30;;;11.80;99.90;;;;;;5073284;28;20542;-70
2022/12/31 06:16:58;;;;;;;0.40;0.40;;;11.70;99.90;;;;;;5073948;28;20177;-71
2022/12/31 06:19:23;;;;;;;0.40;0.40;;;11.70;99.90;;;;;;5073395;28;20747;-69
2022/12/31 06:21:49;;;;;;;0.30;0.30;;;11.70;99.90;;;;;;5073275;28;20196;-71
2022/12/31 06:24:15;;;;;;;0.50;0.50;;;11.70;99.90;;;;;;5073352;28;20165;-71
2022/12/31 06:26:40;;;;;;;0.30;0.30;;;11.60;99.90;;;;;;5073475;28;20916;-71
2022/12/31 06:29:06;;;;;;;0.30;0.30;;;11.60;99.90;;;;;;5073656;28;20166;-71
2022/12/31 06:31:32;;;;;;;0.50;0.40;;;11.50;99.90;;;;;;5073189;28;20192;-71
2022/12/31 06:33:58;;;;;;;0.30;0.30;;;11.50;99.90;;;;;;5073302;28;20314;-71
2022/12/31 06:36:23;;;;;;;0.30;0.30;;;11.50;99.90;;;;;;5071720;28;20697;-69
2022/12/31 06:38:49;;;;;;;0.30;0.30;;;11.50;99.90;;;;;;5073325;28;20173;-70
2022/12/31 06:41:17;;;;;;;0.30;0.30;;;11.50;99.90;;;;;;5073210;28;20292;-70
2022/12/31 06:43:42;;;;;;;0.40;0.40;;;11.50;99.90;;;;;;5073358;28;20165;-69
2022/12/31 06:46:10;;;;;;;0.30;0.30;;;11.40;99.90;;;;;;5073020;28;20180;-71
2022/12/31 06:48:36;;;;;;;0.30;0.30;;;11.40;99.90;;;;;;5071905;28;20166;-71
2022/12/31 06:51:07;;;;;;;0.30;0.30;;;11.40;99.90;;;;;;5072950;28;20796;-70
2022/12/31 06:53:33;;;;;;;0.30;0.30;;;11.30;99.90;;;;;;5073219;28;20665;-70
2022/12/31 06:56:05;;;;;;;0.40;0.40;;;11.30;99.90;;;;;;5072823;28;20178;-70
2022/12/31 06:58:31;;;;;;;0.40;0.40;;;11.30;99.90;;;;;;5073117;28;20169;-71
2022/12/31 07:01:18;;;;;;;0.40;0.40;;;11.20;99.90;;;;;;5072865;28;20214;-71
2022/12/31 07:04:05;;;;;;;0.40;0.40;;;11.20;99.90;;;;;;5073046;28;20162;-69
2022/12/31 07:06:50;;;;;;;0.30;0.30;;;11.20;99.90;;;;;;5071822;28;20584;-71
2022/12/31 07:09:31;;;;;;;0.30;0.30;;;11.20;99.90;;;;;;5072972;28;20178;-70
2022/12/31 07:12:06;;;;;;;0.40;0.40;;;11.10;99.90;;;;;;5076551;28;20268;-70
2022/12/31 07:14:39;;;;;;;0.30;0.30;;;11.00;99.90;;;;;;5076642;28;20199;-69
2022/12/31 07:17:25;;;;;;;0.30;0.30;;;11.00;99.90;;;;;;5076948;28;20169;-69
2022/12/31 07:20:10;;;;;;;0.30;0.30;;;11.00;99.90;;;;;;5075173;28;20208;-70
2022/12/31 07:22:36;;;;;;;1.05;0.70;;;10.90;99.90;;;;;;5076354;28;20245;-71
2022/12/31 07:25:05;;;;;;;0.30;0.30;;;10.90;99.90;;;;;;5076287;28;20173;-70
2022/12/31 07:27:52;;;;;;;0.40;0.40;;;10.90;99.90;;;;;;5075041;28;20176;-70
2022/12/31 07:30:41;;;;;;;0.30;0.30;;;10.80;99.90;;;;;;5076415;28;20174;-70
2022/12/31 07:33:33;;;;;;;0.60;0.60;;;10.80;99.90;;;;;;5076169;28;20169;-69
2022/12/31 07:36:17;;;;;;;1.30;1.20;;;10.80;99.90;;;;;;5076001;28;20260;-69
2022/12/31 07:38:55;;;;;;;1.55;1.45;;;10.70;99.90;;;;;;5076320;28;20677;-69
2022/12/31 07:41:48;;;;;;;0.50;0.50;;;10.70;99.90;;;;;;5076010;28;20239;-70
2022/12/31 07:44:36;;;;;;;4.18;2.58;;;10.70;99.90;;;;;;5076373;28;20158;-71
2022/12/31 07:47:04;;;;;;;1.67;1.58;;;10.70;99.90;;;;;;5076087;28;20219;-70
2022/12/31 07:49:32;;;;;;;0.98;0.98;;;10.80;99.90;;;;;;5075975;28;20168;-70
2022/12/31 07:51:58;;;;;;;0.50;0.50;;;10.80;99.90;;;;;;5075704;28;20288;-70
2022/12/31 07:54:23;;;;;;;0.40;0.40;;;10.70;99.90;;;;;;5075649;28;20191;-71
2022/12/31 07:56:50;;;;;;;0.80;0.80;;;10.80;99.90;;;;;;5075772;28;20170;-70
2022/12/31 07:59:16;;;;;;;1.23;1.13;;;10.80;99.90;;;;;;5075610;28;20252;-71
2022/12/31 08:02:13;;;;;;;2.20;0.80;;;10.80;99.90;;;;;;5075598;28;20273;-70
2022/12/31 08:04:44;;;;;;;0.50;0.50;;;10.70;99.90;;;;;;5075588;28;20231;-70
2022/12/31 08:07:24;;;;;;;1.13;1.13;;;10.70;99.90;;;;;;5075761;28;20525;-70
2022/12/31 08:10:07;;;;;;;0.60;0.60;;;10.70;99.90;;;;;;5075745;28;20173;-70
2022/12/31 08:12:36;;;;;;;0.30;0.30;;;10.80;99.90;;;;;;5075515;28;20387;-70
2022/12/31 08:15:02;;;;;;;0.60;0.50;;;10.90;99.90;;;;;;5075341;28;20184;-70
2022/12/31 08:17:28;;;;;;;0.90;0.87;;;11.00;99.90;;;;;;5075312;28;20165;-70
2022/12/31 08:19:54;;;;;;;2.60;1.33;;;11.20;99.90;;;;;;5075307;28;20944;-69
2022/12/31 08:22:22;;;;;;;0.90;0.90;;;11.70;99.90;;;;;;5072960;28;20272;-70
2022/12/31 08:24:50;;;;;;;0.97;0.97;;;12.20;99.90;;;;;;5075141;28;20877;-69
2022/12/31 08:27:55;;;;;;;1.37;1.27;;;12.80;99.90;;;;;;5075198;28;20491;-70
2022/12/31 08:30:22;;;;;;;1.03;0.97;;;13.40;99.90;;;;;;5074395;28;20819;-70
2022/12/31 08:33:04;;;;;;;2.13;2.03;;;13.90;99.90;;;;;;5075098;28;20541;-70
2022/12/31 08:35:35;;;;;;;1.57;1.47;;;14.50;99.90;;;;;;5074975;28;20742;-69
2022/12/31 08:38:16;;;;;;;1.47;1.43;;;14.90;99.90;;;;;;5075009;28;20427;-71
2022/12/31 08:41:19;;;;;;;1.17;1.10;;;15.20;99.90;;;;;;5075003;28;20450;-70
2022/12/31 08:44:14;;;;;;;0.70;0.70;;;15.40;99.90;;;;;;5074510;28;20510;-70
2022/12/31 08:47:12;;;;;;;1.13;1.13;;;15.60;99.90;;;;;;5075075;28;20713;-71
2022/12/31 08:49:38;;;;;;;0.63;0.63;;;15.80;99.90;;;;;;5074958;28;20399;-71
2022/12/31 08:52:14;;;;;;;0.80;0.80;;;16.00;99.90;;;;;;5074715;28;20416;-71
2022/12/31 08:54:40;;;;;;;0.70;0.50;;;16.40;99.90;;;;;;5074696;28;20636;-71
2022/12/31 08:57:22;;;;;;;0.73;0.73;;;17.20;99.90;;;;;;5074565;28;20396;-71
2022/12/31 09:00:05;;;;;;;0.73;0.70;;;17.70;98.90;;;;;;5074512;28;20455;-71
2022/12/31 09:03:01;;;;;;;0.60;0.60;;;18.20;97.40;;;;;;5074376;28;20426;-70
2022/12/31 09:05:48;;;;;;;1.73;1.23;;;18.50;96.50;;;;;;5074353;28;20395;-70
2022/12/31 09:08:19;;;;;;;0.80;0.80;;;19.00;95.70;;;;;;5074599;28;20399;-70
2022/12/31 09:11:06;;;;;;;1.27;1.17;;;19.80;94.40;;;;;;5074323;28;20476;-71
2022/12/31 09:14:03;;;;;;;0.97;0.97;;;20.30;93.40;;;;;;5074497;28;20453;-71
2022/12/31 09:16:42;;;;;;;1.40;0.90;;;20.90;91.50;;;;;;5074268;28;20378;-71
2022/12/31 09:19:09;;;;;;;1.83;1.13;;;21.30;90.80;;;;;;5074302;28;20812;-71
2022/12/31 09:21:36;;;;;;;1.40;1.10;;;21.90;89.40;;;;;;5074278;28;20436;-70
2022/12/31 09:24:03;;;;;;;1.80;1.10;;;22.70;85.70;;;;;;5074416;28;20370;-71
2022/12/31 09:26:42;;;;;;;0.67;0.67;;;23.30;84.10;;;;;;5074257;28;20408;-70
2022/12/31 09:29:20;;;;;;;2.10;0.80;;;23.80;83.00;;;;;;5074075;28;20506;-71
2022/12/31 09:31:53;;;;;;;0.83;0.83;;;24.50;79.20;;;;;;5073860;28;20434;-71
2022/12/31 09:34:36;;;;;;;1.17;0.77;;;24.80;77.50;;;;;;5073613;28;20396;-71
2022/12/31 09:37:27;;;;;;;0.50;0.50;;;25.10;76.80;;;;;;5074063;28;20415;-71
2022/12/31 09:39:56;;;;;;;0.57;0.57;;;25.00;73.80;;;;;;5074331;28;20801;-70
2022/12/31 09:42:21;;;;;;;0.90;0.50;;;25.30;74.60;;;;;;5073711;28;20463;-72
2022/12/31 09:45:01;;;;;;;1.20;0.77;;;25.80;74.50;;;;;;5073700;28;20442;-72
2022/12/31 09:47:49;;;;;;;0.50;0.50;;;26.50;70.80;;;;;;5073926;28;20190;-72
2022/12/31 09:50:41;;;;;;;0.40;0.40;;;26.70;70.60;;;;;;5073738;28;20403;-70
2022/12/31 09:53:13;;;;;;;0.47;0.47;;;26.30;69.40;;;;;;5073603;28;20380;-71
2022/12/31 09:55:54;;;;;;;0.30;0.30;;;26.60;70.70;;;;;;5072238;28;20404;-72
2022/12/31 09:58:23;;;;;;;0.30;0.30;;;27.10;69.30;;;;;;5073856;28;20883;-72
2022/12/31 10:01:17;;;;;;;0.50;0.50;;;27.40;67.70;;;;;;5073573;28;20470;-71
2022/12/31 10:04:29;;;;;;;1.17;0.73;;;27.70;65.20;;;;;;5069521;28;20775;-69
2022/12/31 10:07:31;;;;;;;0.83;0.83;;;27.80;62.50;;;;;;5071435;28;20423;-69
2022/12/31 10:10:15;;;;;;;0.40;0.37;;;27.60;62.10;;;;;;5073911;28;20425;-69
2022/12/31 10:13:00;;;;;;;0.30;0.30;;;26.60;64.00;;;;;;5073405;28;20418;-69
2022/12/31 10:15:43;;;;;;;0.30;0.30;;;26.40;64.50;;;;;;5073265;28;20400;-69
2022/12/31 10:18:21;;;;;;;0.30;0.30;;;25.80;63.20;;;;;;5073529;28;20428;-69
2022/12/31 10:21:17;;;;;;;0.30;0.30;;;25.60;65.70;;;;;;5073393;28;20455;-69
2022/12/31 10:23:55;;;;;;;0.30;0.30;;;25.20;64.00;;;;;;5073375;28;20380;-68
2022/12/31 10:26:44;;;;;;;0.40;0.40;;;24.70;66.90;;;;;;5073206;28;20384;-69
2022/12/31 10:29:43;;;;;;;0.30;0.30;;;24.30;67.60;;;;;;5072312;28;20491;-69
2022/12/31 10:32:34;;;;;;;0.50;0.50;;;24.10;70.50;;;;;;5073206;28;20469;-69
2022/12/31 10:35:43;;;;;;;0.30;0.30;;;24.10;68.60;;;;;;5073404;28;20434;-69
2022/12/31 10:38:47;;;;;;;0.30;0.30;;;23.70;67.90;;;;;;5071061;28;20485;-68
2022/12/31 10:41:40;;;;;;;0.37;0.37;;;23.10;71.50;;;;;;5070349;28;20474;-69
2022/12/31 10:44:25;;;;;;;0.30;0.30;;;22.40;74.60;;;;;;5072882;28;21004;-69
2022/12/31 10:47:05;;;;;;;0.30;0.30;;;22.10;72.30;;;;;;5077002;28;20453;-69
2022/12/31 10:49:34;;;;;;;0.30;0.30;;;21.60;76.00;;;;;;5077191;28;20422;-68
2022/12/31 10:52:45;;;;;;;0.40;0.30;;;21.00;77.00;;;;;;5076880;28;20487;-68
2022/12/31 10:55:35;;;;;;;0.30;0.30;;;20.40;77.10;;;;;;5076266;28;20395;-69
2022/12/31 10:58:25;;;;;;;0.30;0.30;;;20.30;78.50;;;;;;5076905;28;20430;-70
2022/12/31 11:01:05;;;;;;;0.40;0.40;;;19.80;76.60;;;;;;5077196;28;20472;-71
2022/12/31 11:04:15;;;;;;;0.30;0.30;;;19.50;82.00;;;;;;5076921;28;20829;-71
2022/12/31 11:07:08;;;;;;;0.30;0.30;;;19.40;82.70;;;;;;5074880;28;20440;-70
2022/12/31 11:09:42;;;;;;;0.30;0.30;;;19.20;85.40;;;;;;5076450;28;20412;-71
2022/12/31 11:12:28;;;;;;;0.30;0.30;;;19.00;83.70;;;;;;5076597;28;20419;-71
2022/12/31 11:15:20;;;;;;;0.30;0.30;;;18.90;86.40;;;;;;5076537;28;20427;-70
2022/12/31 11:18:17;;;;;;;0.30;0.30;;;18.80;87.70;;;;;;5076733;28;20401;-70
2022/12/31 11:21:02;;;;;;;0.30;0.30;;;18.50;88.00;;;;;;5076564;28;20512;-70
2022/12/31 11:23:43;;;;;;;0.30;0.30;;;18.40;88.40;;;;;;5075074;28;20464;-71
2022/12/31 11:26:32;;;;;;;0.40;0.40;;;18.10;90.30;;;;;;5076316;28;20394;-71
2022/12/31 11:29:07;;;;;;;0.40;0.40;;;17.80;91.50;;;;;;5076343;28;20412;-71
2022/12/31 11:31:33;;;;;;;0.40;0.40;;;17.70;92.30;;;;;;5076183;28;20431;-71
2022/12/31 11:34:41;;;;;;;0.57;0.57;;;17.60;93.10;;;;;;5076374;28;20405;-70
2022/12/31 11:37:16;;;;;;;0.30;0.30;;;17.50;93.30;;;;;;5076071;28;20656;-69
2022/12/31 11:39:51;;;;;;;0.30;0.30;;;17.40;93.60;;;;;;5076204;28;20944;-70
2022/12/31 11:42:23;;;;;;;0.40;0.40;;;17.30;93.70;;;;;;5075974;28;20431;-71
2022/12/31 11:45:09;;;;;;;0.30;0.30;;;17.20;94.00;;;;;;5075980;28;20489;-71
2022/12/31 11:48:05;;;;;;;0.30;0.30;;;17.10;94.10;;;;;;5074708;28;20491;-71
2022/12/31 11:51:07;;;;;;;0.30;0.30;;;17.00;94.30;;;;;;5074673;28;20425;-71
2022/12/31 11:53:49;;;;;;;0.30;0.30;;;16.80;94.80;;;;;;5057149;28;20889;-71
2022/12/31 11:56:18;;;;;;;0.30;0.30;;;16.80;95.30;;;;;;5075627;28;20400;-71
2022/12/31 11:58:55;;;;;;;1.00;1.00;;;16.70;95.50;;;;;;5075938;28;20414;-70
2022/12/31 12:01:46;;;;;;;0.30;0.30;;;16.70;95.70;;;;;;5075654;28;20542;-71
2022/12/31 12:04:11;;;;;;;0.40;0.40;;;16.70;96.00;;;;;;5075487;28;20388;-71
2022/12/31 12:06:39;;;;;;;0.70;0.60;;;16.60;95.90;;;;;;5075570;28;20400;-71
2022/12/31 12:09:13;;;;;;;0.30;0.30;;;16.60;96.00;;;;;;5075566;28;20219;-71
2022/12/31 12:11:39;;;;;;;0.43;0.43;;;16.60;96.30;;;;;;5074209;28;20443;-71
2022/12/31 12:14:32;;;;;;;0.30;0.30;;;16.60;96.30;;;;;;5075441;28;20408;-70
2022/12/31 12:16:59;;;;;;;0.40;0.40;;;16.70;96.40;;;;;;5075497;28;20805;-71
2022/12/31 12:19:29;;;;;;;0.30;0.30;;;16.70;96.40;;;;;;5075544;28;20415;-71
2022/12/31 12:21:54;;;;;;;0.40;0.40;;;16.70;96.40;;;;;;5075403;28;20838;-70
2022/12/31 12:24:28;;;;;;;0.40;0.40;;;16.80;96.50;;;;;;5075449;28;20400;-70
2022/12/31 12:26:56;;;;;;;0.30;0.30;;;16.80;96.40;;;;;;5075475;28;20568;-70
2022/12/31 12:29:26;;;;;;;0.80;0.80;;;16.80;96.30;;;;;;5075312;28;20403;-71
2022/12/31 12:31:56;;;;;;;0.30;0.30;;;16.70;96.50;;;;;;5075159;28;20435;-71
2022/12/31 12:34:26;;;;;;;0.40;0.40;;;16.70;96.50;;;;;;5075078;28;20773;-71
2022/12/31 12:36:52;;;;;;;0.43;0.43;;;16.70;96.80;;;;;;5074870;28;20463;-71
2022/12/31 12:39:26;;;;;;;0.30;0.30;;;16.60;97.10;;;;;;5075112;28;20423;-70
2022/12/31 12:42:02;;;;;;;0.30;0.30;;;16.60;97.20;;;;;;5075156;28;20558;-71
2022/12/31 12:44:28;;;;;;;0.50;0.50;;;16.60;97.30;;;;;;5074661;28;20403;-71
2022/12/31 12:46:55;;;;;;;0.40;0.40;;;16.50;97.30;;;;;;5074871;28;20396;-71
2022/12/31 12:49:31;;;;;;;0.30;0.30;;;16.50;97.30;;;;;;5074837;28;20404;-70
2022/12/31 12:52:31;;;;;;;0.40;0.40;;;16.50;97.40;;;;;;5074885;28;20439;-71
2022/12/31 12:55:18;;;;;;;0.40;0.40;;;16.50;97.60;;;;;;5074537;28;20396;-71
2022/12/31 12:57:51;;;;;;;0.30;0.30;;;16.40;97.30;;;;;;5074847;28;20400;-71
2022/12/31 13:00:54;;;;;;;0.30;0.30;;;16.40;97.30;;;;;;5074515;28;20443;-71
2022/12/31 13:03:56;;;;;;;0.50;0.40;;;16.40;97.40;;;;;;5073173;28;20896;-71
2022/12/31 13:06:21;;;;;;;0.40;0.40;;;16.40;97.50;;;;;;5074310;28;20391;-71
2022/12/31 13:09:15;;;;;;;0.40;0.40;;;16.40;97.90;;;;;;5074048;28;20785;-71
2022/12/31 13:12:05;;;;;;;0.50;0.50;;;16.40;98.00;;;;;;5074239;28;20189;-71
2022/12/31 13:14:34;;;;;;;0.30;0.30;;;16.30;98.10;;;;;;5074504;28;20395;-71
2022/12/31 13:17:18;;;;;;;0.30;0.30;;;16.20;98.30;;;;;;5074370;28;20431;-71
2022/12/31 13:20:08;;;;;;;0.60;0.40;;;16.10;98.90;;;;;;5072854;28;20497;-70
2022/12/31 13:22:37;;;;;;;0.30;0.30;;;16.00;98.90;;;;;;5074177;28;20429;-70
2022/12/31 13:25:28;;;;;;;0.30;0.30;;;16.00;99.00;;;;;;5073868;28;20770;-70
2022/12/31 13:27:58;;;;;;;0.90;0.50;;;16.00;99.10;;;;;;5074017;28;20425;-70
2022/12/31 13:30:31;;;;;;;0.30;0.30;;;15.90;99.00;;;;;;5073999;28;20402;-71
2022/12/31 13:33:19;;;;;;;1.17;1.17;;;15.90;98.90;;;;;;5074092;28;20915;-70